createdAt,value
2023-05-11T00:00:44.658Z,17.70
2023-05-11T00:03:14.650Z,17.70
2023-05-11T00:05:43.067Z,17.70
2023-05-11T00:08:10.987Z,17.70
2023-05-11T00:10:38.842Z,17.70
2023-05-11T00:13:06.765Z,17.70
2023-05-11T00:15:34.557Z,17.70
2023-05-11T00:18:02.403Z,17.70
2023-05-11T00:20:31.626Z,17.70
2023-05-11T00:22:59.517Z,17.60
2023-05-11T00:25:27.507Z,17.60
2023-05-11T00:27:55.360Z,17.60
2023-05-11T00:30:23.272Z,17.60
2023-05-11T00:32:52.536Z,17.60
2023-05-11T00:35:20.800Z,17.60
2023-05-11T00:37:50.420Z,17.60
2023-05-11T00:40:18.381Z,17.60
2023-05-11T00:42:46.303Z,17.50
2023-05-11T00:45:14.047Z,17.50
2023-05-11T00:47:42.085Z,17.50
2023-05-11T00:50:10.533Z,17.50
2023-05-11T00:52:38.460Z,17.50
2023-05-11T00:55:08.483Z,17.50
2023-05-11T00:57:36.419Z,17.50
2023-05-11T01:00:04.864Z,17.40
2023-05-11T01:02:33.082Z,19.30
2023-05-11T01:05:01.493Z,17.40
2023-05-11T01:07:35.952Z,17.30
2023-05-11T01:10:11.776Z,17.40
2023-05-11T01:12:48.946Z,17.30
2023-05-11T01:15:26.111Z,17.30
2023-05-11T01:18:00.313Z,17.30
2023-05-11T01:20:30.949Z,17.20
2023-05-11T01:23:29.984Z,17.20
2023-05-11T01:26:12.036Z,17.20
2023-05-11T01:29:11.635Z,17.20
2023-05-11T01:31:46.916Z,17.10
2023-05-11T01:34:18.389Z,17.10
2023-05-11T01:36:51.964Z,17.10
2023-05-11T01:39:26.306Z,17.10
2023-05-11T01:41:57.249Z,17.10
2023-05-11T01:44:30.748Z,17.10
2023-05-11T01:47:03.020Z,17.00
2023-05-11T01:49:33.735Z,17.00
2023-05-11T01:52:03.771Z,17.00
2023-05-11T01:54:32.625Z,17.00
2023-05-11T01:57:01.770Z,17.00
2023-05-11T01:59:30.364Z,17.00
2023-05-11T02:02:01.331Z,17.00
2023-05-11T02:04:30.836Z,17.00
2023-05-11T02:07:01.106Z,16.90
2023-05-11T02:09:30.419Z,16.90
2023-05-11T02:11:59.778Z,16.90
2023-05-11T02:14:34.204Z,16.90
2023-05-11T02:17:04.401Z,17.00
2023-05-11T02:19:34.667Z,17.00
2023-05-11T02:22:04.134Z,17.00
2023-05-11T02:24:33.747Z,17.00
2023-05-11T02:27:01.758Z,17.00
2023-05-11T02:29:29.789Z,17.00
2023-05-11T02:32:01.788Z,16.90
2023-05-11T02:34:38.256Z,16.90
2023-05-11T02:37:10.717Z,16.90
2023-05-11T02:39:42.026Z,16.90
2023-05-11T02:42:18.254Z,16.90
2023-05-11T02:45:02.227Z,16.90
2023-05-11T02:47:33.273Z,16.90
2023-05-11T02:50:05.828Z,16.90
2023-05-11T02:52:34.393Z,16.90
2023-05-11T02:55:05.007Z,16.90
2023-05-11T02:57:32.967Z,16.90
2023-05-11T03:00:01.844Z,16.90
2023-05-11T03:02:29.807Z,16.90
2023-05-11T03:04:57.741Z,16.80
2023-05-11T03:07:27.112Z,16.90
2023-05-11T03:09:55.523Z,16.80
2023-05-11T03:12:23.568Z,16.70
2023-05-11T03:14:53.321Z,16.70
2023-05-11T03:17:22.062Z,16.70
2023-05-11T03:19:51.286Z,16.70
2023-05-11T03:22:20.521Z,16.80
2023-05-11T03:24:50.520Z,16.80
2023-05-11T03:27:19.672Z,16.80
2023-05-11T03:29:49.813Z,16.80
2023-05-11T03:32:17.958Z,16.80
2023-05-11T03:34:45.913Z,16.80
2023-05-11T03:37:19.177Z,16.80
2023-05-11T03:39:53.230Z,16.80
2023-05-11T03:42:22.142Z,16.80
2023-05-11T03:44:52.945Z,16.70
2023-05-11T03:47:28.546Z,16.70
2023-05-11T03:49:57.473Z,16.70
2023-05-11T03:52:26.112Z,16.70
2023-05-11T03:54:55.414Z,16.70
2023-05-11T03:57:26.534Z,16.70
2023-05-11T03:59:54.411Z,16.60
2023-05-11T04:02:24.486Z,16.60
2023-05-11T04:04:53.322Z,16.60
2023-05-11T04:07:21.404Z,16.60
2023-05-11T04:09:49.610Z,16.60
2023-05-11T04:12:19.096Z,16.60
2023-05-11T04:14:47.477Z,16.60
2023-05-11T04:17:15.320Z,16.60
2023-05-11T04:19:43.156Z,16.60
2023-05-11T04:22:12.213Z,16.60
2023-05-11T04:24:40.268Z,16.50
2023-05-11T04:27:08.101Z,16.50
2023-05-11T04:29:37.481Z,15.80
2023-05-11T04:32:06.022Z,16.50
2023-05-11T04:34:33.846Z,16.50
2023-05-11T04:37:07.118Z,16.50
2023-05-11T04:39:35.060Z,16.50
2023-05-11T04:42:02.948Z,16.50
2023-05-11T04:44:30.793Z,16.50
2023-05-11T04:47:00.028Z,16.40
2023-05-11T04:49:27.907Z,16.40
2023-05-11T04:51:56.265Z,16.40
2023-05-11T04:54:24.122Z,16.40
2023-05-11T04:56:51.998Z,16.50
2023-05-11T04:59:19.841Z,16.50
2023-05-11T05:01:47.727Z,16.50
2023-05-11T05:04:17.542Z,18.50
2023-05-11T05:06:45.434Z,18.40
2023-05-11T05:09:13.280Z,16.50
2023-05-11T05:11:41.227Z,16.50
2023-05-11T05:14:09.154Z,16.50
2023-05-11T05:16:36.996Z,16.50
2023-05-11T05:19:04.939Z,16.50
2023-05-11T05:21:35.730Z,16.50
2023-05-11T05:24:04.281Z,16.50
2023-05-11T05:26:32.111Z,16.50
2023-05-11T05:28:59.957Z,16.50
2023-05-11T05:31:27.979Z,16.60
2023-05-11T05:33:55.970Z,16.60
2023-05-11T05:36:23.893Z,16.60
2023-05-11T05:38:53.214Z,16.60
2023-05-11T05:41:21.595Z,16.60
2023-05-11T05:43:50.009Z,16.60
2023-05-11T05:46:18.051Z,16.60
2023-05-11T05:48:45.878Z,16.60
2023-05-11T05:51:13.840Z,16.70
2023-05-11T05:53:42.179Z,16.70
2023-05-11T05:56:11.643Z,16.80
2023-05-11T05:58:40.636Z,16.80
2023-05-11T06:01:08.510Z,16.90
2023-05-11T06:03:36.488Z,16.90
2023-05-11T06:06:04.588Z,17.00
2023-05-11T06:08:32.459Z,17.00
2023-05-11T06:11:00.394Z,17.10
2023-05-11T06:13:29.781Z,17.10
2023-05-11T06:15:57.597Z,17.20
2023-05-11T06:18:25.528Z,17.20
2023-05-11T06:20:53.469Z,17.30
2023-05-11T06:23:21.351Z,17.40
2023-05-11T06:25:49.466Z,17.50
2023-05-11T06:28:17.296Z,17.60
2023-05-11T06:30:46.780Z,17.70
2023-05-11T06:33:14.558Z,17.80
2023-05-11T06:35:42.346Z,17.90
2023-05-11T06:38:10.500Z,18.00
2023-05-11T06:40:38.312Z,18.10
2023-05-11T06:43:06.465Z,18.20
2023-05-11T06:45:34.521Z,18.30
2023-05-11T06:48:04.482Z,18.40
2023-05-11T06:50:32.399Z,18.50
2023-05-11T06:53:00.248Z,18.60
2023-05-11T06:55:28.160Z,18.70
2023-05-11T06:57:56.085Z,18.80
2023-05-11T07:00:24.069Z,18.80
2023-05-11T07:02:51.899Z,18.90
2023-05-11T07:05:21.147Z,18.90
2023-05-11T07:07:48.954Z,19.00
2023-05-11T07:10:17.185Z,19.10
2023-05-11T07:12:45.288Z,19.20
2023-05-11T07:15:13.422Z,19.30
2023-05-11T07:17:41.424Z,19.40
2023-05-11T07:20:10.487Z,19.50
2023-05-11T07:22:39.734Z,19.50
2023-05-11T07:25:09.592Z,19.60
2023-05-11T07:27:37.402Z,19.70
2023-05-11T07:30:06.136Z,19.70
2023-05-11T07:32:34.052Z,19.80
2023-05-11T07:35:01.907Z,19.80
2023-05-11T07:37:29.787Z,19.80
2023-05-11T07:39:58.964Z,19.90
2023-05-11T07:42:27.372Z,19.90
2023-05-11T07:44:55.199Z,19.90
2023-05-11T07:47:23.528Z,20.00
2023-05-11T07:49:51.526Z,20.10
2023-05-11T07:52:19.406Z,20.00
2023-05-11T07:54:47.671Z,20.10
2023-05-11T07:57:17.132Z,20.10
2023-05-11T07:59:45.424Z,20.20
2023-05-11T08:02:13.500Z,20.30
2023-05-11T08:04:41.597Z,20.30
2023-05-11T08:07:09.471Z,20.40
2023-05-11T08:09:37.428Z,20.50
2023-05-11T08:12:05.377Z,20.60
2023-05-11T08:14:34.597Z,20.70
2023-05-11T08:17:02.487Z,20.80
2023-05-11T08:19:30.358Z,20.80
2023-05-11T08:21:58.295Z,20.90
2023-05-11T08:24:26.193Z,21.00
2023-05-11T08:26:54.027Z,21.10
2023-05-11T08:29:21.942Z,21.10
2023-05-11T08:31:52.391Z,21.30
2023-05-11T08:34:20.540Z,21.30
2023-05-11T08:36:48.762Z,21.40
2023-05-11T08:39:28.564Z,21.50
2023-05-11T08:42:06.908Z,21.60
2023-05-11T08:44:37.815Z,21.60
2023-05-11T08:47:22.090Z,21.70
2023-05-11T08:49:52.970Z,21.80
2023-05-11T08:52:21.502Z,21.80
2023-05-11T08:54:49.787Z,22.00
2023-05-11T08:57:18.480Z,21.90
2023-05-11T08:59:46.971Z,22.00
2023-05-11T09:02:19.818Z,22.00
2023-05-11T09:04:49.273Z,22.00
2023-05-11T09:07:18.591Z,21.90
2023-05-11T09:09:48.015Z,22.00
2023-05-11T09:12:17.450Z,22.00
2023-05-11T09:14:47.041Z,21.90
2023-05-11T09:17:16.554Z,21.90
2023-05-11T09:20:06.527Z,22.00
2023-05-11T09:22:36.532Z,22.00
2023-05-11T09:25:05.488Z,22.10
2023-05-11T09:27:33.786Z,22.10
2023-05-11T09:30:12.597Z,22.10
2023-05-11T09:32:53.073Z,22.20
2023-05-11T09:35:22.854Z,22.30
2023-05-11T09:38:01.505Z,22.30
2023-05-11T09:40:34.087Z,22.40
2023-05-11T09:43:03.244Z,22.50
2023-05-11T09:45:41.612Z,22.50
2023-05-11T09:48:26.020Z,22.60
2023-05-11T09:51:00.932Z,22.70
2023-05-11T09:53:36.680Z,22.70
2023-05-11T09:56:05.622Z,22.80
2023-05-11T09:58:51.703Z,22.90
2023-05-11T10:01:29.310Z,23.00
2023-05-11T10:04:13.446Z,23.10
2023-05-11T10:06:52.918Z,23.20
2023-05-11T10:09:24.358Z,23.30
2023-05-11T10:11:54.238Z,23.40
2023-05-11T10:14:24.327Z,23.50
2023-05-11T10:16:53.271Z,23.60
2023-05-11T10:19:24.469Z,23.70
2023-05-11T10:21:53.590Z,23.80
2023-05-11T10:24:21.798Z,23.90
2023-05-11T10:26:50.850Z,24.00
2023-05-11T10:29:20.534Z,24.10
2023-05-11T10:31:51.134Z,24.20
2023-05-11T10:34:19.657Z,24.20
2023-05-11T10:36:49.851Z,24.30
2023-05-11T10:39:19.992Z,24.30
2023-05-11T10:41:56.274Z,24.30
2023-05-11T10:44:51.932Z,24.30
2023-05-11T10:47:42.262Z,24.20
2023-05-11T10:50:24.084Z,24.20
2023-05-11T10:53:33.179Z,24.10
2023-05-11T10:56:19.680Z,24.00
2023-05-11T10:59:04.926Z,23.90
2023-05-11T11:01:39.363Z,23.80
2023-05-11T11:04:08.519Z,23.60
2023-05-11T11:06:38.830Z,23.40
2023-05-11T11:09:12.746Z,23.20
2023-05-11T11:11:42.641Z,22.90
2023-05-11T11:14:11.702Z,22.70
2023-05-11T11:16:40.213Z,22.40
2023-05-11T11:19:41.903Z,22.20
2023-05-11T11:22:46.994Z,21.90
2023-05-11T11:26:02.905Z,21.70
2023-05-11T11:29:08.972Z,21.40
2023-05-11T11:31:37.721Z,21.20
2023-05-11T11:34:34.292Z,21.20
2023-05-11T11:37:08.516Z,20.90
2023-05-11T11:40:13.978Z,20.70
2023-05-11T11:42:44.749Z,20.60
2023-05-11T11:45:33.470Z,20.50
2023-05-11T11:48:09.391Z,20.40
2023-05-11T11:50:37.618Z,20.30
2023-05-11T11:53:05.549Z,20.30
2023-05-11T11:55:47.974Z,20.20
2023-05-11T11:58:54.294Z,20.20
2023-05-11T12:01:25.832Z,20.10
2023-05-11T12:04:22.045Z,20.10
2023-05-11T12:06:58.753Z,20.10
2023-05-11T12:09:27.466Z,20.10
2023-05-11T12:11:56.207Z,20.10
2023-05-11T12:14:24.649Z,20.10
2023-05-11T12:17:05.255Z,20.00
2023-05-11T12:19:33.310Z,20.00
2023-05-11T12:22:01.928Z,20.00
2023-05-11T12:24:30.028Z,20.00
2023-05-11T12:26:58.644Z,20.00
2023-05-11T12:29:26.963Z,20.00
2023-05-11T12:31:55.859Z,20.00
2023-05-11T12:34:25.041Z,20.00
2023-05-11T12:36:54.531Z,19.90
2023-05-11T12:39:23.894Z,20.00
2023-05-11T12:41:54.706Z,20.10
2023-05-11T12:44:24.757Z,20.00
2023-05-11T12:46:53.320Z,19.90
2023-05-11T12:49:27.212Z,19.90
2023-05-11T12:52:07.706Z,19.90
2023-05-11T12:54:38.631Z,19.90
2023-05-11T12:57:08.068Z,20.00
2023-05-11T12:59:38.390Z,19.90
2023-05-11T13:02:17.207Z,19.90
2023-05-11T13:04:47.886Z,19.90
2023-05-11T13:07:27.601Z,19.90
2023-05-11T13:09:58.993Z,20.00
2023-05-11T13:12:28.046Z,20.00
2023-05-11T13:15:07.122Z,20.10
2023-05-11T13:17:36.610Z,20.10
2023-05-11T13:20:23.766Z,20.00
2023-05-11T13:22:52.519Z,20.00
2023-05-11T13:25:21.514Z,20.00
2023-05-11T13:27:49.990Z,20.10
2023-05-11T13:30:17.949Z,20.10
2023-05-11T13:32:46.183Z,20.10
2023-05-11T13:35:14.648Z,20.10
2023-05-11T13:37:43.852Z,20.10
2023-05-11T13:40:13.261Z,20.10
2023-05-11T13:42:41.609Z,21.70
2023-05-11T13:45:10.677Z,20.20
2023-05-11T13:47:38.604Z,20.20
2023-05-11T13:50:08.017Z,20.30
2023-05-11T13:52:37.137Z,20.30
2023-05-11T13:55:07.338Z,20.30
2023-05-11T13:57:35.333Z,20.30
2023-05-11T14:00:03.380Z,20.30
2023-05-11T14:02:31.327Z,20.30
2023-05-11T14:04:59.197Z,20.40
2023-05-11T14:07:39.209Z,20.40
2023-05-11T14:10:15.612Z,20.40
2023-05-11T14:12:43.697Z,20.40
2023-05-11T14:15:12.394Z,20.40
2023-05-11T14:17:42.650Z,20.40
2023-05-11T14:20:11.977Z,20.40
2023-05-11T14:22:41.633Z,20.40
2023-05-11T14:25:10.221Z,20.40
2023-05-11T14:27:39.558Z,20.40
2023-05-11T14:30:08.967Z,20.50
2023-05-11T14:32:36.859Z,20.40
2023-05-11T14:35:04.907Z,20.40
2023-05-11T14:37:32.742Z,20.40
2023-05-11T14:40:00.898Z,20.50
2023-05-11T14:42:29.680Z,20.50
2023-05-11T14:44:58.903Z,20.50
2023-05-11T14:47:27.037Z,20.60
2023-05-11T14:49:54.897Z,20.60
2023-05-11T14:52:22.822Z,20.70
2023-05-11T14:54:51.446Z,20.70
2023-05-11T14:57:19.362Z,20.80
2023-05-11T14:59:58.306Z,20.80
2023-05-11T15:02:29.645Z,20.80
2023-05-11T15:04:57.596Z,20.90
2023-05-11T15:07:25.637Z,20.90
2023-05-11T15:09:53.935Z,20.90
2023-05-11T15:12:21.790Z,21.00
2023-05-11T15:14:49.834Z,21.10
2023-05-11T15:17:19.400Z,21.10
2023-05-11T15:19:48.820Z,21.20
2023-05-11T15:22:17.656Z,21.30
2023-05-11T15:24:45.693Z,21.40
2023-05-11T15:27:13.792Z,21.60
2023-05-11T15:29:41.763Z,21.70
2023-05-11T15:32:13.483Z,21.90
2023-05-11T15:34:58.102Z,22.00
2023-05-11T15:37:29.193Z,22.20
2023-05-11T15:39:57.232Z,22.30
2023-05-11T15:42:25.426Z,22.50
2023-05-11T15:44:53.401Z,22.60
2023-05-11T15:47:21.517Z,22.70
2023-05-11T15:49:50.598Z,22.80
2023-05-11T15:52:18.601Z,22.90
2023-05-11T15:54:47.857Z,23.00
2023-05-11T15:57:16.573Z,23.10
2023-05-11T15:59:44.534Z,23.20
2023-05-11T16:02:12.560Z,23.30
2023-05-11T16:04:40.437Z,23.10
2023-05-11T16:07:08.426Z,23.20
2023-05-11T16:09:36.209Z,23.30
2023-05-11T16:12:05.887Z,23.30
2023-05-11T16:14:33.775Z,23.30
2023-05-11T16:17:02.197Z,23.30
2023-05-11T16:19:30.449Z,23.20
2023-05-11T16:21:58.597Z,23.20
2023-05-11T16:24:26.833Z,23.10
2023-05-11T16:26:54.760Z,23.00
2023-05-11T16:29:26.051Z,23.00
2023-05-11T16:31:54.102Z,22.90
2023-05-11T16:34:22.093Z,23.20
2023-05-11T16:36:50.673Z,22.90
2023-05-11T16:39:18.569Z,22.80
2023-05-11T16:41:46.842Z,22.80
2023-05-11T16:44:14.619Z,22.70
2023-05-11T16:46:43.821Z,22.70
2023-05-11T16:49:11.629Z,22.70
2023-05-11T16:51:39.457Z,22.60
2023-05-11T16:54:07.544Z,22.60
2023-05-11T16:56:35.379Z,22.50
2023-05-11T16:59:03.353Z,22.40
2023-05-11T17:01:31.934Z,22.30
2023-05-11T17:04:01.200Z,22.30
2023-05-11T17:06:29.188Z,22.20
2023-05-11T17:08:57.002Z,22.10
2023-05-11T17:11:24.874Z,22.10
2023-05-11T17:13:52.668Z,22.00
2023-05-11T17:16:20.574Z,21.90
2023-05-11T17:18:48.698Z,21.80
2023-05-11T17:21:17.941Z,21.70
2023-05-11T17:23:46.082Z,21.60
2023-05-11T17:26:14.789Z,21.40
2023-05-11T17:28:42.684Z,21.20
2023-05-11T17:31:11.648Z,21.00
2023-05-11T17:33:41.087Z,20.80
2023-05-11T17:36:10.397Z,20.70
2023-05-11T17:38:39.606Z,20.50
2023-05-11T17:41:07.568Z,20.40
2023-05-11T17:43:37.904Z,20.30
2023-05-11T17:46:05.967Z,20.20
2023-05-11T17:48:33.985Z,20.10
2023-05-11T17:51:02.367Z,20.10
2023-05-11T17:53:30.229Z,20.10
2023-05-11T17:56:00.811Z,20.00
2023-05-11T17:58:28.815Z,20.00
2023-05-11T18:00:56.618Z,20.00
2023-05-11T18:03:24.749Z,20.10
2023-05-11T18:05:53.087Z,20.00
2023-05-11T18:08:20.990Z,20.00
2023-05-11T18:10:48.862Z,20.20
2023-05-11T18:13:18.173Z,20.00
2023-05-11T18:15:46.351Z,20.00
2023-05-11T18:18:14.408Z,20.10
2023-05-11T18:20:45.288Z,20.10
2023-05-11T18:23:14.093Z,20.10
2023-05-11T18:25:42.663Z,20.10
2023-05-11T18:28:10.665Z,20.10
2023-05-11T18:30:40.183Z,20.10
2023-05-11T18:33:08.087Z,20.10
2023-05-11T18:35:36.100Z,20.10
2023-05-11T18:38:04.952Z,20.10
2023-05-11T18:40:33.043Z,20.10
2023-05-11T18:43:01.196Z,20.10
2023-05-11T18:45:30.376Z,20.10
2023-05-11T18:47:59.836Z,20.10
2023-05-11T18:50:29.678Z,20.10
2023-05-11T18:52:57.679Z,20.00
2023-05-11T18:55:27.726Z,20.00
2023-05-11T18:57:58.202Z,20.00
2023-05-11T19:00:25.985Z,20.00
2023-05-11T19:02:54.590Z,20.00
2023-05-11T19:05:23.765Z,19.90
2023-05-11T19:07:52.202Z,19.90
2023-05-11T19:10:20.350Z,19.90
2023-05-11T19:12:48.625Z,19.90
2023-05-11T19:15:16.490Z,19.90
2023-05-11T19:17:44.724Z,19.90
2023-05-11T19:20:13.903Z,19.80
2023-05-11T19:22:43.106Z,19.80
2023-05-11T19:25:11.578Z,19.80
2023-05-11T19:27:40.130Z,19.70
2023-05-11T19:30:09.615Z,19.70
2023-05-11T19:32:37.496Z,19.60
2023-05-11T19:35:05.803Z,19.60
2023-05-11T19:37:33.921Z,19.50
2023-05-11T19:40:37.278Z,19.60
2023-05-11T19:42:51.060Z,19.40
2023-05-11T19:45:19.147Z,19.40
2023-05-11T19:47:47.030Z,19.30
2023-05-11T19:50:15.454Z,19.30
2023-05-11T19:52:43.237Z,19.30
2023-05-11T19:55:13.914Z,19.20
2023-05-11T19:57:41.770Z,19.20
2023-05-11T20:00:11.760Z,19.20
2023-05-11T20:02:40.181Z,19.10
2023-05-11T20:05:08.592Z,19.10
2023-05-11T20:07:36.558Z,19.00
2023-05-11T20:10:05.722Z,19.00
2023-05-11T20:12:34.879Z,19.00
2023-05-11T20:15:02.737Z,18.90
2023-05-11T20:17:31.226Z,18.90
2023-05-11T20:19:59.074Z,18.90
2023-05-11T20:22:26.856Z,18.90
2023-05-11T20:24:54.623Z,18.80
2023-05-11T20:27:22.473Z,18.80
2023-05-11T20:29:51.834Z,18.80
2023-05-11T20:32:19.635Z,18.70
2023-05-11T20:34:47.892Z,18.70
2023-05-11T20:37:16.538Z,18.70
2023-05-11T20:39:45.278Z,18.60
2023-05-11T20:42:13.300Z,18.60
2023-05-11T20:44:41.141Z,18.60
2023-05-11T20:47:11.302Z,18.50
2023-05-11T20:49:39.643Z,18.50
2023-05-11T20:52:07.960Z,18.50
2023-05-11T20:54:36.292Z,18.40
2023-05-11T20:57:04.955Z,18.40
2023-05-11T21:02:04.406Z,18.40
2023-05-11T21:04:33.999Z,18.40
2023-05-11T21:07:01.852Z,18.30
2023-05-11T21:09:29.967Z,18.30
2023-05-11T21:11:57.945Z,18.30
2023-05-11T21:14:25.920Z,18.30
2023-05-11T21:16:53.759Z,18.30
2023-05-11T21:19:21.561Z,18.30
2023-05-11T21:21:50.810Z,18.30
2023-05-11T21:24:18.820Z,18.30
2023-05-11T21:26:48.162Z,18.20
2023-05-11T21:29:16.307Z,18.20
2023-05-11T21:31:44.283Z,18.20
2023-05-11T21:34:12.152Z,18.20
2023-05-11T21:36:41.274Z,18.20
2023-05-11T21:39:10.458Z,18.20
2023-05-11T21:41:38.266Z,18.10
2023-05-11T21:44:06.424Z,18.20
2023-05-11T21:46:34.405Z,18.10
2023-05-11T21:49:02.239Z,18.10
2023-05-11T21:51:30.050Z,18.10
2023-05-11T21:53:57.871Z,18.00
2023-05-11T21:56:27.006Z,19.00
2023-05-11T21:58:54.859Z,18.00
2023-05-11T22:01:22.775Z,18.00
2023-05-11T22:03:50.895Z,18.00
2023-05-11T22:06:18.793Z,18.00
2023-05-11T22:08:46.817Z,18.00
2023-05-11T22:11:15.059Z,17.90
2023-05-11T22:13:45.032Z,17.90
2023-05-11T22:16:13.103Z,17.90
2023-05-11T22:18:41.069Z,17.90
2023-05-11T22:21:09.057Z,17.90
2023-05-11T22:23:37.070Z,17.90
2023-05-11T22:26:05.741Z,17.90
2023-05-11T22:28:33.783Z,17.80
2023-05-11T22:31:02.945Z,17.80
2023-05-11T22:33:30.705Z,17.70
2023-05-11T22:35:58.988Z,17.70
2023-05-11T22:38:26.999Z,17.60
2023-05-11T22:40:54.841Z,17.60
2023-05-11T22:43:22.612Z,17.60
2023-05-11T22:45:50.714Z,17.60
2023-05-11T22:48:19.917Z,17.60
2023-05-11T22:50:47.836Z,17.60
2023-05-11T22:53:16.183Z,17.60
2023-05-11T22:55:44.224Z,17.60
2023-05-11T22:58:12.136Z,17.60
2023-05-11T23:00:39.979Z,17.60
2023-05-11T23:03:08.182Z,17.50
2023-05-11T23:05:37.418Z,17.50
2023-05-11T23:08:05.233Z,17.50
2023-05-11T23:10:33.044Z,17.50
2023-05-11T23:13:00.900Z,17.50
2023-05-11T23:15:28.733Z,17.40
2023-05-11T23:17:56.652Z,17.40
2023-05-11T23:20:24.685Z,17.40
2023-05-11T23:22:53.887Z,17.30
2023-05-11T23:25:21.656Z,17.30
2023-05-11T23:27:50.116Z,17.30
2023-05-11T23:30:19.061Z,17.30
2023-05-11T23:32:47.157Z,17.30
2023-05-11T23:35:15.496Z,17.30
2023-05-11T23:37:43.326Z,17.30
2023-05-11T23:40:13.098Z,17.20
2023-05-11T23:42:40.904Z,17.20
2023-05-11T23:45:09.544Z,17.20
2023-05-11T23:47:38.299Z,17.10
2023-05-11T23:50:07.312Z,17.10
2023-05-11T23:52:35.127Z,17.00
2023-05-11T23:55:03.034Z,16.90
2023-05-11T23:57:32.232Z,16.90
